createdAt,value
2023-03-28T00:01:06.205Z,100297.48
2023-03-28T00:03:39.958Z,100282.56
2023-03-28T00:06:16.573Z,100294.61
2023-03-28T00:08:48.139Z,100288.35
2023-03-28T00:11:21.311Z,100282.64
2023-03-28T00:13:58.039Z,100284.52
2023-03-28T00:16:32.432Z,100280.35
2023-03-28T00:19:05.883Z,100279.16
2023-03-28T00:21:38.015Z,100283.05
2023-03-28T00:24:14.065Z,100285.50
2023-03-28T00:26:49.602Z,100279.55
2023-03-28T00:29:21.968Z,100277.86
2023-03-28T00:31:53.072Z,100282.98
2023-03-28T00:34:24.137Z,100277.28
2023-03-28T00:36:55.507Z,100271.17
2023-03-28T00:39:27.910Z,100269.86
2023-03-28T00:42:01.673Z,100273.50
2023-03-28T00:44:55.588Z,100265.22
2023-03-28T00:47:37.995Z,100267.61
2023-03-28T00:50:12.687Z,100265.97
2023-03-28T00:52:45.266Z,100264.10
2023-03-28T00:55:18.391Z,100266.00
2023-03-28T00:57:51.352Z,100261.23
2023-03-28T01:00:24.526Z,100267.85
2023-03-28T01:02:58.507Z,100266.46
2023-03-28T01:05:31.446Z,100264.45
2023-03-28T01:08:05.970Z,100260.58
2023-03-28T01:10:37.834Z,100250.35
2023-03-28T01:13:12.110Z,100257.80
2023-03-28T01:15:43.670Z,100252.23
2023-03-28T01:18:16.532Z,100258.63
2023-03-28T01:21:06.703Z,100262.70
2023-03-28T01:24:11.719Z,100276.43
2023-03-28T01:26:48.934Z,100293.35
2023-03-28T01:29:46.932Z,100313.61
2023-03-28T01:32:30.049Z,100293.73
2023-03-28T01:35:17.857Z,100280.48
2023-03-28T01:37:52.393Z,100277.40
2023-03-28T01:40:31.504Z,100275.08
2023-03-28T01:43:10.316Z,100259.15
2023-03-28T01:45:48.620Z,100275.20
2023-03-28T01:48:24.400Z,100275.75
2023-03-28T01:50:58.156Z,100271.55
2023-03-28T01:53:32.678Z,100268.62
2023-03-28T01:56:08.053Z,100272.77
2023-03-28T01:58:43.960Z,100281.45
2023-03-28T02:01:24.238Z,100283.27
2023-03-28T02:03:59.456Z,100288.73
2023-03-28T02:06:46.678Z,100276.91
2023-03-28T02:09:24.588Z,100294.48
2023-03-28T02:12:19.772Z,100300.55
2023-03-28T02:15:04.992Z,100303.98
2023-03-28T02:17:54.254Z,100294.52
2023-03-28T02:20:42.811Z,100306.58
2023-03-28T02:23:24.166Z,100305.31
2023-03-28T02:26:25.236Z,100299.73
2023-03-28T02:29:12.685Z,100302.73
2023-03-28T02:31:55.798Z,100300.23
2023-03-28T02:34:28.624Z,100301.43
2023-03-28T02:37:03.763Z,100297.65
2023-03-28T02:39:53.432Z,100300.98
2023-03-28T02:42:38.453Z,100308.55
2023-03-28T02:45:30.386Z,100308.33
2023-03-28T02:48:08.238Z,100304.16
2023-03-28T02:50:44.877Z,100277.48
2023-03-28T02:53:22.349Z,100291.66
2023-03-28T02:55:56.124Z,100309.83
2023-03-28T02:58:48.983Z,100315.42
2023-03-28T03:01:21.284Z,100330.30
2023-03-28T03:03:52.705Z,100328.52
2023-03-28T03:06:24.297Z,100327.49
2023-03-28T03:08:58.042Z,100329.19
2023-03-28T03:11:29.455Z,100331.89
2023-03-28T03:14:01.691Z,100337.39
2023-03-28T03:16:34.595Z,100348.20
2023-03-28T03:19:06.334Z,100351.06
2023-03-28T03:21:37.728Z,100345.80
2023-03-28T03:24:10.692Z,100370.96
2023-03-28T03:26:43.827Z,100369.52
2023-03-28T03:29:19.501Z,100367.63
2023-03-28T03:31:51.161Z,100365.04
2023-03-28T03:34:51.431Z,100380.74
2023-03-28T03:37:22.813Z,100361.91
2023-03-28T03:39:54.140Z,100354.90
2023-03-28T03:42:30.105Z,100373.84
2023-03-28T03:45:02.150Z,100388.98
2023-03-28T03:47:33.262Z,100389.10
2023-03-28T03:50:04.557Z,100395.68
2023-03-28T03:52:37.031Z,100404.44
2023-03-28T03:55:09.917Z,100408.53
2023-03-28T03:57:42.795Z,100408.13
2023-03-28T04:00:15.050Z,100414.79
2023-03-28T04:02:52.003Z,100421.91
2023-03-28T04:05:28.838Z,100401.42
2023-03-28T04:08:08.204Z,100426.36
2023-03-28T04:10:42.822Z,100434.35
2023-03-28T04:13:13.902Z,100432.84
2023-03-28T04:15:47.163Z,100436.34
2023-03-28T04:18:45.820Z,100443.95
2023-03-28T04:21:18.036Z,100446.20
2023-03-28T04:23:49.873Z,100460.27
2023-03-28T04:26:56.197Z,100472.61
2023-03-28T04:29:31.733Z,100480.44
2023-03-28T04:32:24.838Z,100474.54
2023-03-28T04:35:09.248Z,100474.15
2023-03-28T04:37:40.609Z,100479.30
2023-03-28T04:40:16.637Z,100484.24
2023-03-28T04:43:13.073Z,100489.56
2023-03-28T04:45:52.771Z,100494.02
2023-03-28T04:48:26.451Z,100490.30
2023-03-28T04:50:58.471Z,100498.36
2023-03-28T04:53:30.413Z,100499.71
2023-03-28T04:56:25.150Z,100511.91
2023-03-28T04:58:56.489Z,100521.23
2023-03-28T05:01:31.175Z,100520.66
2023-03-28T05:04:25.981Z,100528.20
2023-03-28T05:06:57.981Z,100537.86
2023-03-28T05:09:29.724Z,100543.33
2023-03-28T05:12:01.091Z,100544.34
2023-03-28T05:14:32.453Z,100549.01
2023-03-28T05:17:14.558Z,100560.80
2023-03-28T05:19:59.645Z,100561.55
2023-03-28T05:22:36.622Z,100568.44
2023-03-28T05:25:09.052Z,100567.51
2023-03-28T05:27:43.307Z,100568.41
2023-03-28T05:30:15.464Z,100575.98
2023-03-28T05:32:47.449Z,100576.88
2023-03-28T05:35:19.592Z,100574.65
2023-03-28T05:37:51.758Z,100569.69
2023-03-28T05:40:24.000Z,100581.34
2023-03-28T05:42:55.545Z,100581.17
2023-03-28T05:45:28.172Z,100595.08
2023-03-28T05:48:03.780Z,100601.71
2023-03-28T05:50:35.424Z,100604.52
2023-03-28T05:53:10.407Z,100607.96
2023-03-28T05:55:42.436Z,100612.71
2023-03-28T05:58:13.779Z,100614.88
2023-03-28T06:00:46.698Z,100621.22
2023-03-28T06:03:18.070Z,100621.59
2023-03-28T06:05:50.705Z,100625.41
2023-03-28T06:08:24.641Z,100632.42
2023-03-28T06:11:01.037Z,100632.45
2023-03-28T06:13:36.655Z,100642.91
2023-03-28T06:16:08.822Z,100644.16
2023-03-28T06:18:40.149Z,100640.85
2023-03-28T06:21:11.288Z,100651.52
2023-03-28T06:23:42.530Z,100651.58
2023-03-28T06:26:22.233Z,100657.58
2023-03-28T06:28:53.840Z,100660.23
2023-03-28T06:31:26.965Z,100665.27
2023-03-28T06:33:58.126Z,100675.73
2023-03-28T06:36:29.220Z,100657.16
2023-03-28T06:39:01.682Z,100671.69
2023-03-28T06:41:35.246Z,100679.81
2023-03-28T06:44:08.120Z,100684.77
2023-03-28T06:46:58.917Z,100686.42
2023-03-28T06:49:30.382Z,100696.63
2023-03-28T06:52:22.157Z,100702.39
2023-03-28T06:54:54.507Z,100709.48
2023-03-28T06:57:25.720Z,100697.75
2023-03-28T07:00:02.861Z,100717.81
2023-03-28T07:02:52.926Z,100720.23
2023-03-28T07:05:24.572Z,100721.64
2023-03-28T07:07:55.826Z,100726.25
2023-03-28T07:10:27.220Z,100726.33
2023-03-28T07:12:58.467Z,100737.59
2023-03-28T07:15:29.472Z,100736.83
2023-03-28T07:18:01.679Z,100745.90
2023-03-28T07:20:34.298Z,100724.41
2023-03-28T07:23:05.636Z,100754.76
2023-03-28T07:25:37.389Z,100755.48
2023-03-28T07:28:08.837Z,100760.08
2023-03-28T07:30:41.506Z,100769.19
2023-03-28T07:33:19.836Z,100783.27
2023-03-28T07:35:55.296Z,100757.02
2023-03-28T07:38:26.672Z,100772.77
2023-03-28T07:41:03.091Z,100775.61
2023-03-28T07:43:34.538Z,100775.35
2023-03-28T07:46:08.320Z,100781.60
2023-03-28T07:48:41.116Z,100780.40
2023-03-28T07:51:13.140Z,100779.34
2023-03-28T07:53:45.249Z,100782.31
2023-03-28T07:56:16.369Z,100776.17
2023-03-28T07:59:04.620Z,100781.65
2023-03-28T08:01:36.022Z,100783.88
2023-03-28T08:04:08.967Z,100795.13
2023-03-28T08:06:56.314Z,100801.94
2023-03-28T08:09:28.086Z,100814.97
2023-03-28T08:12:25.294Z,100823.49
2023-03-28T08:14:56.682Z,100818.80
2023-03-28T08:17:28.209Z,100808.57
2023-03-28T08:19:59.974Z,100817.05
2023-03-28T08:22:53.929Z,100824.27
2023-03-28T08:25:59.911Z,100819.74
2023-03-28T08:28:31.424Z,100833.48
2023-03-28T08:31:03.887Z,100835.05
2023-03-28T08:33:35.654Z,100870.31
2023-03-28T08:36:07.936Z,100871.09
2023-03-28T08:38:39.672Z,100863.30
2023-03-28T08:41:19.985Z,100853.95
2023-03-28T08:44:10.867Z,100857.84
2023-03-28T08:46:43.875Z,100860.38
2023-03-28T08:49:17.397Z,100864.78
2023-03-28T08:51:50.549Z,100868.27
2023-03-28T08:54:24.637Z,100875.86
2023-03-28T08:56:57.529Z,100886.02
2023-03-28T08:59:30.753Z,100888.86
2023-03-28T09:02:02.329Z,100885.02
2023-03-28T09:04:36.065Z,100897.45
2023-03-28T09:07:15.693Z,100898.54
2023-03-28T09:09:54.889Z,100914.16
2023-03-28T09:12:39.713Z,100908.95
2023-03-28T09:15:22.035Z,100914.23
2023-03-28T09:17:58.660Z,100910.11
2023-03-28T09:20:35.161Z,100911.14
2023-03-28T09:25:53.036Z,100913.21
2023-03-28T09:28:38.917Z,100923.55
2023-03-28T09:31:15.546Z,100927.31
2023-03-28T09:33:50.821Z,100935.19
2023-03-28T09:36:45.332Z,100943.16
2023-03-28T09:39:33.414Z,100929.37
2023-03-28T09:42:13.985Z,100939.17
2023-03-28T09:45:30.690Z,100935.35
2023-03-28T09:48:05.103Z,100927.16
2023-03-28T09:50:39.976Z,100936.56
2023-03-28T09:53:23.544Z,100935.09
2023-03-28T09:56:04.395Z,100942.48
2023-03-28T09:58:54.835Z,100934.91
2023-03-28T10:01:44.056Z,100940.35
2023-03-28T10:04:38.372Z,100945.72
2023-03-28T10:07:43.962Z,100950.83
2023-03-28T10:10:43.433Z,100947.50
2023-03-28T10:13:21.119Z,100957.66
2023-03-28T10:15:57.955Z,100955.63
2023-03-28T10:18:59.448Z,100963.20
2023-03-28T10:21:40.876Z,100971.81
2023-03-28T10:24:21.824Z,100963.45
2023-03-28T10:27:13.605Z,100963.28
2023-03-28T10:29:47.781Z,100961.02
2023-03-28T10:32:29.925Z,100976.02
2023-03-28T10:35:26.403Z,100986.24
2023-03-28T10:38:18.386Z,100994.52
2023-03-28T10:41:21.866Z,101004.23
2023-03-28T10:44:27.511Z,100985.30
2023-03-28T10:47:12.423Z,100998.28
2023-03-28T10:49:56.214Z,100999.24
2023-03-28T10:52:37.836Z,101003.23
2023-03-28T10:55:17.668Z,101019.06
2023-03-28T10:58:09.233Z,101009.30
2023-03-28T11:00:57.737Z,101010.11
2023-03-28T11:03:45.894Z,101022.63
2023-03-28T11:06:24.318Z,101023.86
2023-03-28T11:09:05.092Z,101025.13
2023-03-28T11:12:10.230Z,101043.88
2023-03-28T11:14:56.601Z,101043.65
2023-03-28T11:17:43.576Z,101030.50
2023-03-28T11:20:30.991Z,101035.68
2023-03-28T11:23:34.543Z,101033.73
2023-03-28T11:26:33.552Z,101041.92
2023-03-28T11:29:43.594Z,101020.61
2023-03-28T11:32:23.184Z,101031.47
2023-03-28T11:35:08.661Z,101031.70
2023-03-28T11:37:48.012Z,101053.52
2023-03-28T11:40:28.935Z,101056.70
2023-03-28T11:43:13.370Z,101061.76
2023-03-28T11:45:53.344Z,101068.27
2023-03-28T11:48:36.140Z,101053.52
2023-03-28T11:51:14.431Z,101050.02
2023-03-28T11:53:59.152Z,101060.77
2023-03-28T11:56:44.680Z,101064.44
2023-03-28T11:59:31.803Z,101063.67
2023-03-28T12:02:11.694Z,101079.13
2023-03-28T12:04:51.017Z,101089.86
2023-03-28T12:07:30.533Z,101105.17
2023-03-28T12:10:20.027Z,101107.80
2023-03-28T12:13:02.952Z,101102.02
2023-03-28T12:15:44.360Z,101104.79
2023-03-28T12:18:29.433Z,101107.54
2023-03-28T12:21:10.630Z,101103.05
2023-03-28T12:24:02.266Z,101115.38
2023-03-28T12:26:59.540Z,101120.55
2023-03-28T12:29:40.047Z,101112.30
2023-03-28T12:32:27.643Z,101120.70
2023-03-28T12:35:13.702Z,101115.07
2023-03-28T12:38:14.936Z,101129.56
2023-03-28T12:40:57.717Z,101122.35
2023-03-28T12:43:39.645Z,101131.78
2023-03-28T12:46:18.014Z,101136.75
2023-03-28T12:48:57.689Z,101141.29
2023-03-28T12:51:38.999Z,101141.02
2023-03-28T12:54:26.529Z,101149.15
2023-03-28T12:57:18.944Z,101149.61
2023-03-28T13:00:16.581Z,101146.96
2023-03-28T13:03:28.827Z,101149.49
2023-03-28T13:06:13.605Z,101157.09
2023-03-28T13:09:04.605Z,101139.58
2023-03-28T13:11:52.787Z,101152.64
2023-03-28T13:14:38.015Z,101159.92
2023-03-28T13:17:19.952Z,101146.75
2023-03-28T13:19:55.984Z,101158.80
2023-03-28T13:22:40.604Z,101157.92
2023-03-28T13:25:32.350Z,101163.00
2023-03-28T13:28:29.652Z,101160.14
2023-03-28T13:31:11.484Z,101169.22
2023-03-28T13:33:50.991Z,101150.61
2023-03-28T13:36:29.872Z,101160.01
2023-03-28T13:39:22.427Z,101161.84
2023-03-28T13:42:02.190Z,101160.17
2023-03-28T13:44:41.635Z,101153.35
2023-03-28T13:47:32.309Z,101160.46
2023-03-28T13:50:16.011Z,101164.95
2023-03-28T13:52:48.917Z,101160.33
2023-03-28T13:55:23.836Z,101163.86
2023-03-28T13:57:57.005Z,101171.73
2023-03-28T14:00:31.225Z,101165.84
2023-03-28T14:03:06.664Z,101160.32
2023-03-28T14:05:46.623Z,101150.86
2023-03-28T14:08:26.618Z,101147.08
2023-03-28T14:11:00.982Z,101153.94
2023-03-28T14:13:33.956Z,101155.13
2023-03-28T14:16:10.544Z,101159.28
2023-03-28T14:18:48.767Z,101166.70
2023-03-28T14:21:24.087Z,101153.74
2023-03-28T14:24:03.516Z,101165.69
2023-03-28T14:26:38.166Z,101165.07
2023-03-28T14:29:15.350Z,101170.52
2023-03-28T14:31:49.938Z,101163.83
2023-03-28T14:34:26.275Z,101169.96
2023-03-28T14:37:00.956Z,101169.08
2023-03-28T14:39:35.127Z,101163.94
2023-03-28T14:42:13.679Z,101166.52
2023-03-28T14:44:48.654Z,101175.80
2023-03-28T14:47:28.046Z,101178.54
2023-03-28T14:50:01.616Z,101160.64
2023-03-28T14:52:37.247Z,101167.08
2023-03-28T14:55:15.948Z,101168.16
2023-03-28T14:57:51.038Z,101185.73
2023-03-28T15:00:36.545Z,101185.49
2023-03-28T15:03:13.657Z,101190.02
2023-03-28T15:05:48.812Z,101193.57
2023-03-28T15:08:30.987Z,101192.96
2023-03-28T15:11:07.310Z,101177.55
2023-03-28T15:13:41.190Z,101192.29
2023-03-28T15:16:21.200Z,101196.52
2023-03-28T15:19:07.024Z,101192.66
2023-03-28T15:21:42.721Z,101206.40
2023-03-28T15:24:19.842Z,101202.55
2023-03-28T15:26:57.856Z,101183.56
2023-03-28T15:29:34.559Z,101161.90
2023-03-28T15:32:12.628Z,101210.88
2023-03-28T15:34:55.934Z,101198.90
2023-03-28T15:37:29.817Z,101213.17
2023-03-28T15:40:29.169Z,101211.29
2023-03-28T15:43:04.032Z,101216.13
2023-03-28T15:45:45.610Z,101214.66
2023-03-28T15:48:20.878Z,101220.66
2023-03-28T15:50:56.759Z,101218.38
2023-03-28T15:53:32.166Z,101226.77
2023-03-28T15:56:12.189Z,101225.73
2023-03-28T15:58:47.360Z,101230.98
2023-03-28T16:01:26.512Z,101224.11
2023-03-28T16:04:31.642Z,101214.46
2023-03-28T16:07:14.091Z,101211.89
2023-03-28T16:09:47.940Z,101240.35
2023-03-28T16:12:21.316Z,101242.36
2023-03-28T16:15:14.341Z,101234.14
2023-03-28T16:17:55.621Z,101238.73
2023-03-28T16:20:50.722Z,101238.33
2023-03-28T16:23:27.245Z,101239.06
2023-03-28T16:26:00.398Z,101243.97
2023-03-28T16:28:33.291Z,101238.60
2023-03-28T16:31:06.800Z,101243.97
2023-03-28T16:33:39.386Z,101233.23
2023-03-28T16:36:14.245Z,101250.89
2023-03-28T16:38:47.410Z,101255.63
2023-03-28T16:41:21.917Z,101258.90
2023-03-28T16:43:54.643Z,101258.20
2023-03-28T16:46:27.778Z,101258.61
2023-03-28T16:49:01.328Z,101265.61
2023-03-28T16:51:34.541Z,101259.96
2023-03-28T16:54:08.045Z,101262.63
2023-03-28T16:56:42.824Z,101264.34
2023-03-28T16:59:16.278Z,101232.20
2023-03-28T17:01:49.097Z,101252.63
2023-03-28T17:04:21.627Z,101264.50
2023-03-28T17:06:54.679Z,101266.02
2023-03-28T17:09:27.939Z,101270.48
2023-03-28T17:12:00.740Z,101270.23
2023-03-28T17:14:33.635Z,101271.91
2023-03-28T17:17:07.023Z,101276.27
2023-03-28T17:19:40.009Z,101274.42
2023-03-28T17:22:13.362Z,101276.83
2023-03-28T17:24:46.958Z,101281.41
2023-03-28T17:27:21.338Z,101280.89
2023-03-28T17:29:54.270Z,101285.39
2023-03-28T17:32:27.343Z,101284.81
2023-03-28T17:35:00.227Z,101286.66
2023-03-28T17:37:33.165Z,101291.02
2023-03-28T17:40:06.971Z,101294.17
2023-03-28T17:42:39.738Z,101293.56
2023-03-28T17:45:13.299Z,101294.96
2023-03-28T17:47:46.188Z,101302.69
2023-03-28T17:50:18.970Z,101299.77
2023-03-28T17:52:52.176Z,101298.91
2023-03-28T17:55:24.702Z,101294.96
2023-03-28T17:57:57.647Z,101308.58
2023-03-28T18:00:31.517Z,101308.07
2023-03-28T18:03:04.346Z,101312.33
2023-03-28T18:06:00.528Z,101299.39
2023-03-28T18:08:34.045Z,101316.15
2023-03-28T18:11:09.293Z,101321.17
2023-03-28T18:13:42.154Z,101325.47
2023-03-28T18:16:18.440Z,101321.48
2023-03-28T18:18:51.200Z,101323.02
2023-03-28T18:21:24.161Z,101324.08
2023-03-28T18:23:57.234Z,101327.65
2023-03-28T18:26:31.408Z,101322.02
2023-03-28T18:29:04.894Z,101328.98
2023-03-28T18:31:39.114Z,101330.80
2023-03-28T18:34:12.118Z,101336.39
2023-03-28T18:36:45.584Z,101337.13
2023-03-28T18:39:18.419Z,101338.98
2023-03-28T18:41:51.182Z,101335.56
2023-03-28T18:44:24.299Z,101337.67
2023-03-28T18:46:58.395Z,101335.92
2023-03-28T18:49:31.543Z,101335.36
2023-03-28T18:52:05.282Z,101336.94
2023-03-28T18:54:38.844Z,101337.77
2023-03-28T18:57:11.690Z,101340.84
2023-03-28T18:59:44.296Z,101339.86
2023-03-28T19:02:17.650Z,101343.59
2023-03-28T19:04:51.028Z,101343.48
2023-03-28T19:07:23.830Z,101344.80
2023-03-28T19:09:56.676Z,101336.79
2023-03-28T19:12:30.031Z,101320.02
2023-03-28T19:15:02.565Z,101319.98
2023-03-28T19:17:38.196Z,101327.30
2023-03-28T19:20:13.338Z,101329.88
2023-03-28T19:22:46.232Z,101328.08
2023-03-28T19:25:19.521Z,101329.08
2023-03-28T19:27:52.342Z,101327.80
2023-03-28T19:30:25.366Z,101328.39
2023-03-28T19:32:58.769Z,101328.61
2023-03-28T19:35:31.775Z,101326.52
2023-03-28T19:38:04.662Z,101327.96
2023-03-28T19:40:38.037Z,101326.17
2023-03-28T19:43:10.856Z,101324.36
2023-03-28T19:45:43.531Z,101316.41
2023-03-28T19:48:16.398Z,101322.66
2023-03-28T19:50:51.083Z,101325.48
2023-03-28T19:53:22.502Z,101310.08
2023-03-28T19:55:56.726Z,101323.88
2023-03-28T19:58:29.918Z,101330.48
2023-03-28T20:01:04.367Z,101312.80
2023-03-28T20:03:35.805Z,101329.19
2023-03-28T20:06:10.580Z,101323.60
2023-03-28T20:08:42.805Z,101322.23
2023-03-28T20:11:16.958Z,101320.39
2023-03-28T20:13:50.075Z,101319.52
2023-03-28T20:16:23.224Z,101321.95
2023-03-28T20:18:56.312Z,101320.85
2023-03-28T20:21:29.837Z,101320.09
2023-03-28T20:24:03.942Z,101329.45
2023-03-28T20:26:36.791Z,101325.44
2023-03-28T20:29:13.792Z,101325.27
2023-03-28T20:31:46.846Z,101325.64
2023-03-28T20:34:20.236Z,101327.96
2023-03-28T20:36:56.565Z,101323.84
2023-03-28T20:39:34.134Z,101327.85
2023-03-28T20:42:07.354Z,101325.74
2023-03-28T20:44:40.583Z,101307.27
2023-03-28T20:47:15.171Z,101325.61
2023-03-28T20:49:48.924Z,101308.27
2023-03-28T20:52:21.516Z,101320.41
2023-03-28T20:54:54.634Z,101319.63
2023-03-28T20:57:30.533Z,101321.80
2023-03-28T21:00:07.053Z,101324.76
2023-03-28T21:02:40.505Z,101319.70
2023-03-28T21:05:14.440Z,101326.41
2023-03-28T21:07:47.676Z,101329.40
2023-03-28T21:10:20.819Z,101333.16
2023-03-28T21:12:53.960Z,101330.44
2023-03-28T21:15:28.252Z,101324.40
2023-03-28T21:18:00.745Z,101325.75
2023-03-28T21:20:33.642Z,101329.23
2023-03-28T21:23:06.562Z,101325.96
2023-03-28T21:25:39.253Z,101323.35
2023-03-28T21:28:12.640Z,101326.13
2023-03-28T21:30:45.682Z,101325.39
2023-03-28T21:33:19.338Z,101321.40
2023-03-28T21:35:54.462Z,101320.27
2023-03-28T21:38:28.063Z,101321.12
2023-03-28T21:41:01.186Z,101323.11
2023-03-28T21:43:34.380Z,101324.61
2023-03-28T21:46:07.818Z,101325.32
2023-03-28T21:48:41.691Z,101331.38
2023-03-28T21:51:15.510Z,101340.15
2023-03-28T21:53:49.478Z,101343.05
2023-03-28T21:56:23.080Z,101348.17
2023-03-28T21:58:56.401Z,101346.41
2023-03-28T22:01:28.865Z,101346.98
2023-03-28T22:04:02.314Z,101343.40
2023-03-28T22:06:35.042Z,101340.42
2023-03-28T22:09:08.094Z,101342.41
2023-03-28T22:11:42.193Z,101343.98
2023-03-28T22:14:14.752Z,101333.95
2023-03-28T22:16:49.019Z,101339.77
2023-03-28T22:19:21.654Z,101344.16
2023-03-28T22:21:54.827Z,101344.38
2023-03-28T22:24:30.780Z,101339.44
2023-03-28T22:27:04.228Z,101340.41
2023-03-28T22:29:38.100Z,101339.52
2023-03-28T22:32:11.149Z,101337.30
2023-03-28T22:34:44.926Z,101338.83
2023-03-28T22:37:17.907Z,101341.48
2023-03-28T22:39:50.483Z,101338.33
2023-03-28T22:42:23.183Z,101338.76
2023-03-28T22:44:55.902Z,101339.36
2023-03-28T22:47:30.427Z,101335.77
2023-03-28T22:50:01.660Z,101332.84
2023-03-28T22:52:35.067Z,101337.11
2023-03-28T22:55:11.168Z,101334.89
2023-03-28T22:57:44.504Z,101336.64
2023-03-28T23:00:18.544Z,101331.83
2023-03-28T23:02:51.827Z,101329.42
2023-03-28T23:05:25.419Z,101329.15
2023-03-28T23:08:00.131Z,101310.09
2023-03-28T23:10:31.292Z,101327.56
2023-03-28T23:13:04.297Z,101329.16
2023-03-28T23:15:37.225Z,101326.70
2023-03-28T23:18:09.902Z,101328.64
2023-03-28T23:20:42.971Z,101322.77
2023-03-28T23:23:15.813Z,101322.37
2023-03-28T23:25:48.777Z,101325.45
2023-03-28T23:28:21.479Z,101322.53
2023-03-28T23:30:54.700Z,101322.35
2023-03-28T23:33:27.376Z,101323.77
2023-03-28T23:36:00.331Z,101319.49
2023-03-28T23:38:34.343Z,101308.42
2023-03-28T23:41:07.927Z,101312.05
2023-03-28T23:43:40.787Z,101312.79
2023-03-28T23:46:13.551Z,101292.38
2023-03-28T23:48:46.188Z,101307.20
2023-03-28T23:51:19.302Z,101305.86
2023-03-28T23:53:52.620Z,101305.27
2023-03-28T23:56:25.463Z,101304.70
2023-03-28T23:58:58.274Z,101302.52
